createdAt,value
2022-12-18T00:01:23.148Z,101942.13
2022-12-18T00:03:50.240Z,101933.38
2022-12-18T00:06:17.645Z,101927.69
2022-12-18T00:08:45.338Z,101923.72
2022-12-18T00:11:17.466Z,101926.75
2022-12-18T00:13:44.827Z,101931.59
2022-12-18T00:16:14.436Z,101927.59
2022-12-18T00:18:42.105Z,101931.94
2022-12-18T00:21:11.093Z,101929.03
2022-12-18T00:23:39.325Z,101929.97
2022-12-18T00:26:10.779Z,101940.50
2022-12-18T00:28:37.463Z,101933.91
2022-12-18T00:31:06.944Z,101931.63
2022-12-18T00:33:33.691Z,101924.09
2022-12-18T00:36:09.989Z,101928.06
2022-12-18T00:38:36.791Z,101928.59
2022-12-18T00:41:03.705Z,101929.38
2022-12-18T00:43:30.440Z,101922.34
2022-12-18T00:45:57.075Z,101927.28
2022-12-18T00:48:23.631Z,101920.31
2022-12-18T00:50:51.136Z,101912.72
2022-12-18T00:53:18.193Z,101922.66
2022-12-18T00:55:45.976Z,101927.56
2022-12-18T00:58:14.936Z,101935.03
2022-12-18T01:00:42.020Z,101936.91
2022-12-18T01:03:10.312Z,101934.59
2022-12-18T01:05:40.952Z,101935.34
2022-12-18T01:08:07.643Z,101930.78
2022-12-18T01:10:34.224Z,101931.63
2022-12-18T01:13:00.780Z,101948.75
2022-12-18T01:15:27.372Z,101946.88
2022-12-18T01:17:54.420Z,101943.88
2022-12-18T01:20:21.610Z,101931.94
2022-12-18T01:22:48.190Z,101942.63
2022-12-18T01:25:14.722Z,101945.56
2022-12-18T01:27:41.301Z,101949.84
2022-12-18T01:30:08.336Z,101956.28
2022-12-18T01:32:34.943Z,101954.50
2022-12-18T01:35:01.479Z,101959.09
2022-12-18T01:37:28.056Z,101959.50
2022-12-18T01:39:55.547Z,101954.09
2022-12-18T01:42:26.462Z,101963.00
2022-12-18T01:45:13.299Z,101972.53
2022-12-18T01:47:41.833Z,101973.19
2022-12-18T01:50:13.868Z,101964.16
2022-12-18T01:52:43.240Z,101964.66
2022-12-18T01:55:11.233Z,101959.00
2022-12-18T01:57:39.511Z,101943.91
2022-12-18T02:00:10.647Z,101948.06
2022-12-18T02:02:37.628Z,101958.38
2022-12-18T02:05:04.922Z,101951.50
2022-12-18T02:07:41.545Z,101960.63
2022-12-18T02:10:37.422Z,101956.69
2022-12-18T02:13:14.064Z,101938.81
2022-12-18T02:15:48.721Z,101939.69
2022-12-18T02:18:22.063Z,101935.47
2022-12-18T02:21:05.705Z,101941.72
2022-12-18T02:24:03.472Z,101949.06
2022-12-18T02:26:32.543Z,101945.97
2022-12-18T02:29:17.357Z,101943.34
2022-12-18T02:31:47.935Z,101939.81
2022-12-18T02:34:15.778Z,101928.06
2022-12-18T02:36:44.948Z,101924.13
2022-12-18T02:39:13.482Z,101931.63
2022-12-18T02:41:40.481Z,101935.53
2022-12-18T02:44:12.696Z,101934.22
2022-12-18T02:46:43.433Z,101940.16
2022-12-18T02:49:31.334Z,101949.03
2022-12-18T02:52:34.749Z,101949.88
2022-12-18T02:55:29.364Z,101939.81
2022-12-18T02:58:05.367Z,101942.81
2022-12-18T03:00:37.948Z,101943.34
2022-12-18T03:03:10.848Z,101942.41
2022-12-18T03:05:44.098Z,101931.81
2022-12-18T03:08:23.735Z,101931.19
2022-12-18T03:11:11.339Z,101940.34
2022-12-18T03:13:44.288Z,101954.47
2022-12-18T03:16:16.172Z,101963.25
2022-12-18T03:18:53.039Z,101937.38
2022-12-18T03:21:23.961Z,101932.59
2022-12-18T03:23:52.479Z,101934.16
2022-12-18T03:26:22.081Z,101937.34
2022-12-18T03:28:54.419Z,101935.81
2022-12-18T03:31:24.556Z,101933.13
2022-12-18T03:34:02.088Z,101926.03
2022-12-18T03:36:28.807Z,101936.47
2022-12-18T03:38:55.325Z,101934.97
2022-12-18T03:41:55.431Z,101930.47
2022-12-18T03:44:33.985Z,101933.81
2022-12-18T03:47:14.433Z,101936.88
2022-12-18T03:50:07.124Z,101936.69
2022-12-18T03:52:41.780Z,101928.34
2022-12-18T03:55:10.324Z,101934.78
2022-12-18T03:57:37.880Z,101928.44
2022-12-18T04:00:09.133Z,101928.44
2022-12-18T04:02:39.125Z,101929.78
2022-12-18T04:05:10.840Z,101933.59
2022-12-18T04:07:39.277Z,101930.53
2022-12-18T04:10:07.934Z,101931.84
2022-12-18T04:12:34.472Z,101931.13
2022-12-18T04:15:00.986Z,101939.59
2022-12-18T04:17:27.536Z,101932.34
2022-12-18T04:19:54.094Z,101929.88
2022-12-18T04:22:20.630Z,101917.19
2022-12-18T04:24:47.125Z,101930.00
2022-12-18T04:27:13.668Z,101919.63
2022-12-18T04:29:40.320Z,101931.28
2022-12-18T04:32:06.851Z,101923.19
2022-12-18T04:34:33.372Z,101927.88
2022-12-18T04:36:59.867Z,101928.78
2022-12-18T04:39:26.437Z,101931.63
2022-12-18T04:41:53.398Z,101929.88
2022-12-18T04:44:19.869Z,101920.50
2022-12-18T04:46:46.360Z,101914.09
2022-12-18T04:49:13.391Z,101926.03
2022-12-18T04:51:39.921Z,101919.25
2022-12-18T04:54:06.442Z,101913.81
2022-12-18T04:56:33.311Z,101930.81
2022-12-18T04:58:59.791Z,101920.22
2022-12-18T05:01:32.579Z,101923.75
2022-12-18T05:04:01.679Z,101914.56
2022-12-18T05:06:28.288Z,101912.22
2022-12-18T05:08:54.777Z,101909.53
2022-12-18T05:11:21.464Z,101918.59
2022-12-18T05:13:48.029Z,101916.47
2022-12-18T05:16:15.376Z,101934.50
2022-12-18T05:18:42.050Z,101936.44
2022-12-18T05:21:08.681Z,101942.75
2022-12-18T05:23:35.731Z,101938.94
2022-12-18T05:26:04.902Z,101945.78
2022-12-18T05:28:33.063Z,101939.06
2022-12-18T05:31:03.093Z,101934.44
2022-12-18T05:33:32.545Z,101941.38
2022-12-18T05:36:01.627Z,101942.03
2022-12-18T05:38:30.437Z,101943.81
2022-12-18T05:40:57.658Z,101933.69
2022-12-18T05:43:24.831Z,101931.09
2022-12-18T05:45:52.911Z,101938.00
2022-12-18T05:48:20.610Z,101924.63
2022-12-18T05:50:48.540Z,101923.38
2022-12-18T05:53:17.152Z,101929.53
2022-12-18T05:55:44.693Z,101922.88
2022-12-18T05:58:13.408Z,101925.50
2022-12-18T06:00:43.674Z,101929.16
2022-12-18T06:03:11.751Z,101932.63
2022-12-18T06:05:40.664Z,101920.31
2022-12-18T06:08:07.571Z,101923.09
2022-12-18T06:10:34.493Z,101938.38
2022-12-18T06:13:01.825Z,101947.38
2022-12-18T06:15:28.645Z,101942.16
2022-12-18T06:17:55.187Z,101949.97
2022-12-18T06:20:21.948Z,101943.34
2022-12-18T06:22:48.560Z,101942.78
2022-12-18T06:25:15.134Z,101947.59
2022-12-18T06:27:41.774Z,101945.75
2022-12-18T06:30:10.221Z,101947.31
2022-12-18T06:32:36.902Z,101957.63
2022-12-18T06:35:03.551Z,101937.91
2022-12-18T06:37:32.433Z,101953.47
2022-12-18T06:39:59.013Z,101963.16
2022-12-18T06:42:25.869Z,101960.09
2022-12-18T06:44:52.483Z,101969.00
2022-12-18T06:47:19.336Z,101972.91
2022-12-18T06:49:45.846Z,101976.00
2022-12-18T06:52:12.311Z,101965.13
2022-12-18T06:54:38.816Z,101966.56
2022-12-18T06:57:05.270Z,101967.97
2022-12-18T06:59:31.712Z,101971.56
2022-12-18T07:01:58.281Z,101977.38
2022-12-18T07:04:30.521Z,101976.69
2022-12-18T07:06:56.988Z,101974.00
2022-12-18T07:09:23.773Z,101969.03
2022-12-18T07:11:51.034Z,101972.00
2022-12-18T07:14:17.518Z,101990.56
2022-12-18T07:16:44.038Z,101999.28
2022-12-18T07:19:10.642Z,101991.28
2022-12-18T07:21:37.231Z,102003.56
2022-12-18T07:24:03.992Z,102006.78
2022-12-18T07:26:30.532Z,101996.09
2022-12-18T07:28:58.550Z,101991.75
2022-12-18T07:31:26.044Z,101986.22
2022-12-18T07:33:53.166Z,101983.75
2022-12-18T07:36:24.823Z,101968.31
2022-12-18T07:38:53.326Z,101975.03
2022-12-18T07:41:20.402Z,101965.97
2022-12-18T07:43:47.872Z,101985.25
2022-12-18T07:46:15.468Z,101997.78
2022-12-18T07:48:44.237Z,101998.31
2022-12-18T07:51:16.309Z,101995.13
2022-12-18T07:53:43.596Z,101985.81
2022-12-18T07:56:29.071Z,101983.13
2022-12-18T07:58:56.755Z,101997.91
2022-12-18T08:01:23.535Z,101997.91
2022-12-18T08:03:52.260Z,101997.81
2022-12-18T08:06:22.538Z,101997.19
2022-12-18T08:08:54.966Z,101995.22
2022-12-18T08:11:22.571Z,102002.25
2022-12-18T08:13:49.051Z,102002.47
2022-12-18T08:16:16.792Z,101995.28
2022-12-18T08:18:43.354Z,102001.06
2022-12-18T08:21:17.987Z,101990.66
2022-12-18T08:23:45.901Z,101995.97
2022-12-18T08:26:13.365Z,102002.66
2022-12-18T08:28:40.781Z,102006.66
2022-12-18T08:31:08.032Z,102012.56
2022-12-18T08:33:35.263Z,102007.41
2022-12-18T08:36:02.812Z,102003.88
2022-12-18T08:38:29.366Z,102001.19
2022-12-18T08:41:07.885Z,101993.16
2022-12-18T08:43:53.278Z,101990.66
2022-12-18T08:46:22.208Z,101988.72
2022-12-18T08:48:49.291Z,101980.28
2022-12-18T08:51:18.090Z,101984.34
2022-12-18T08:53:45.464Z,101981.41
2022-12-18T08:56:13.116Z,101977.44
2022-12-18T08:58:40.039Z,101969.97
2022-12-18T09:01:10.144Z,101964.69
2022-12-18T09:03:37.511Z,101968.84
2022-12-18T09:06:04.548Z,101970.69
2022-12-18T09:08:31.049Z,101971.63
2022-12-18T09:10:57.578Z,101980.91
2022-12-18T09:13:25.017Z,101988.31
2022-12-18T09:15:54.523Z,101990.59
2022-12-18T09:18:23.275Z,101985.81
2022-12-18T09:20:51.260Z,101987.22
2022-12-18T09:23:17.815Z,101995.38
2022-12-18T09:25:44.372Z,101996.22
2022-12-18T09:28:14.015Z,101999.22
2022-12-18T09:30:44.140Z,101989.50
2022-12-18T09:33:11.107Z,101997.13
2022-12-18T09:35:38.340Z,101996.44
2022-12-18T09:38:04.944Z,101999.47
2022-12-18T09:40:37.002Z,102003.38
2022-12-18T09:43:07.581Z,101994.97
2022-12-18T09:45:42.780Z,102004.56
2022-12-18T09:48:20.788Z,101995.50
2022-12-18T09:50:48.060Z,101996.63
2022-12-18T09:53:23.020Z,101997.19
2022-12-18T09:55:51.245Z,102005.47
2022-12-18T09:58:32.582Z,102005.59
2022-12-18T10:00:59.104Z,102005.13
2022-12-18T10:03:25.680Z,102001.59
2022-12-18T10:06:15.038Z,101992.63
2022-12-18T10:08:57.900Z,101989.44
2022-12-18T10:11:33.268Z,101999.94
2022-12-18T10:14:09.540Z,101998.84
2022-12-18T10:17:00.627Z,102006.63
2022-12-18T10:20:03.841Z,102008.38
2022-12-18T10:22:45.494Z,102012.03
2022-12-18T10:25:20.613Z,101993.31
2022-12-18T10:27:47.537Z,101988.25
2022-12-18T10:30:17.081Z,101985.78
2022-12-18T10:33:04.338Z,101976.97
2022-12-18T10:35:30.861Z,101981.16
2022-12-18T10:38:07.054Z,101966.97
2022-12-18T10:40:37.192Z,101987.28
2022-12-18T10:43:13.531Z,101984.72
2022-12-18T10:45:40.407Z,101981.38
2022-12-18T10:48:20.363Z,101976.50
2022-12-18T10:53:37.970Z,101989.19
2022-12-18T10:56:07.200Z,101982.97
2022-12-18T10:58:39.402Z,101989.13
2022-12-18T11:01:17.317Z,101981.31
2022-12-18T11:04:00.458Z,101976.88
2022-12-18T11:06:29.156Z,101964.72
2022-12-18T11:09:00.288Z,101975.91
2022-12-18T11:11:27.044Z,101994.75
2022-12-18T11:14:01.859Z,101982.63
2022-12-18T11:16:31.674Z,101975.72
2022-12-18T11:19:26.247Z,101973.56
2022-12-18T11:21:53.035Z,101965.13
2022-12-18T11:24:29.188Z,101962.31
2022-12-18T11:26:59.921Z,101972.53
2022-12-18T11:29:34.723Z,101973.72
2022-12-18T11:32:25.495Z,101964.34
2022-12-18T11:35:02.060Z,101967.03
2022-12-18T11:37:29.692Z,101955.78
2022-12-18T11:40:14.994Z,101939.00
2022-12-18T11:43:07.159Z,101945.03
2022-12-18T11:45:43.701Z,101950.91
2022-12-18T11:48:19.005Z,101954.69
2022-12-18T11:50:52.787Z,101951.75
2022-12-18T11:53:20.108Z,101957.94
2022-12-18T11:55:51.252Z,101954.47
2022-12-18T11:58:43.932Z,101938.19
2022-12-18T12:01:29.213Z,101947.00
2022-12-18T12:04:21.846Z,101940.22
2022-12-18T12:07:14.840Z,101933.00
2022-12-18T12:09:58.528Z,101944.44
2022-12-18T12:12:50.176Z,101954.97
2022-12-18T12:15:43.575Z,101949.44
2022-12-18T12:18:29.911Z,101948.63
2022-12-18T12:21:25.645Z,101952.44
2022-12-18T12:23:58.300Z,101950.78
2022-12-18T12:26:37.933Z,101939.22
2022-12-18T12:29:38.320Z,101947.66
2022-12-18T12:32:27.669Z,101948.16
2022-12-18T12:35:09.906Z,101950.84
2022-12-18T12:37:42.359Z,101954.72
2022-12-18T12:40:48.307Z,101940.75
2022-12-18T12:43:14.065Z,101930.56
2022-12-18T12:45:55.731Z,101917.06
2022-12-18T12:48:32.608Z,101913.78
2022-12-18T12:51:02.661Z,101921.06
2022-12-18T12:53:36.676Z,101903.63
2022-12-18T12:56:06.120Z,101893.03
2022-12-18T12:59:18.423Z,101898.25
2022-12-18T13:02:00.610Z,101895.63
2022-12-18T13:04:57.594Z,101903.84
2022-12-18T13:07:39.357Z,101902.59
2022-12-18T13:13:19.483Z,101902.84
2022-12-18T13:16:05.503Z,101900.34
2022-12-18T13:18:33.361Z,101903.75
2022-12-18T13:21:03.256Z,101900.41
2022-12-18T13:23:30.403Z,101894.22
2022-12-18T13:26:27.975Z,101880.25
2022-12-18T13:28:56.808Z,101876.09
2022-12-18T13:31:26.117Z,101897.09
2022-12-18T13:34:27.427Z,101888.22
2022-12-18T13:37:00.419Z,101893.56
2022-12-18T13:39:35.518Z,101894.84
2022-12-18T13:42:05.504Z,101894.53
2022-12-18T13:44:40.329Z,101883.69
2022-12-18T13:47:29.105Z,101890.38
2022-12-18T13:49:56.032Z,101879.47
2022-12-18T13:52:26.226Z,101891.03
2022-12-18T13:54:55.796Z,101862.31
2022-12-18T13:57:30.238Z,101865.38
2022-12-18T13:59:57.733Z,101866.25
2022-12-18T14:02:27.264Z,101860.41
2022-12-18T14:04:55.104Z,101847.63
2022-12-18T14:07:33.124Z,101853.06
2022-12-18T14:10:26.027Z,101854.47
2022-12-18T14:12:57.610Z,101862.09
2022-12-18T14:15:30.013Z,101866.59
2022-12-18T14:18:03.339Z,101853.28
2022-12-18T14:20:32.706Z,101852.19
2022-12-18T14:23:01.141Z,101864.16
2022-12-18T14:25:30.621Z,101860.59
2022-12-18T14:28:14.204Z,101870.22
2022-12-18T14:30:46.788Z,101862.69
2022-12-18T14:33:19.634Z,101854.78
2022-12-18T14:36:01.808Z,101858.88
2022-12-18T14:38:40.774Z,101856.50
2022-12-18T14:41:12.837Z,101861.59
2022-12-18T14:43:43.049Z,101860.59
2022-12-18T14:46:38.458Z,101848.94
2022-12-18T14:49:25.798Z,101856.44
2022-12-18T14:52:08.508Z,101857.94
2022-12-18T14:54:42.589Z,101845.16
2022-12-18T14:57:41.300Z,101850.81
2022-12-18T15:00:17.196Z,101854.91
2022-12-18T15:02:46.040Z,101846.13
2022-12-18T15:05:32.269Z,101849.41
2022-12-18T15:08:01.054Z,101852.31
2022-12-18T15:10:35.135Z,101833.41
2022-12-18T15:13:03.421Z,101838.59
2022-12-18T15:15:41.460Z,101842.44
2022-12-18T15:18:08.169Z,101835.91
2022-12-18T15:20:56.186Z,101827.09
2022-12-18T15:23:28.410Z,101828.56
2022-12-18T15:26:10.075Z,101828.69
2022-12-18T15:28:53.004Z,101839.09
2022-12-18T15:31:32.142Z,101837.38
2022-12-18T15:34:00.132Z,101824.25
2022-12-18T15:36:31.114Z,101819.19
2022-12-18T15:39:06.595Z,101814.31
2022-12-18T15:41:37.656Z,101816.56
2022-12-18T15:44:22.969Z,101817.25
2022-12-18T15:46:49.664Z,101807.41
2022-12-18T15:49:16.187Z,101812.63
2022-12-18T15:51:42.973Z,101820.97
2022-12-18T15:54:14.337Z,101811.03
2022-12-18T15:56:59.764Z,101805.00
2022-12-18T15:59:26.620Z,101804.09
2022-12-18T16:02:02.862Z,101802.19
2022-12-18T16:04:30.293Z,101810.91
2022-12-18T16:09:43.422Z,101811.47
2022-12-18T16:12:22.345Z,101804.69
2022-12-18T16:14:49.361Z,101800.69
2022-12-18T16:17:16.441Z,101807.59
2022-12-18T16:19:43.166Z,101801.72
2022-12-18T16:22:21.088Z,101802.28
2022-12-18T16:24:48.627Z,101787.47
2022-12-18T16:27:15.360Z,101784.84
2022-12-18T16:29:42.127Z,101797.66
2022-12-18T16:32:16.279Z,101795.38
2022-12-18T16:34:44.532Z,101786.00
2022-12-18T16:37:13.256Z,101778.88
2022-12-18T16:39:40.804Z,101779.44
2022-12-18T16:42:17.449Z,101776.84
2022-12-18T16:44:44.992Z,101775.59
2022-12-18T16:47:13.250Z,101781.25
2022-12-18T16:49:42.213Z,101779.28
2022-12-18T16:52:09.083Z,101781.69
2022-12-18T16:54:36.560Z,101777.06
2022-12-18T16:57:05.375Z,101776.50
2022-12-18T16:59:32.643Z,101765.06
2022-12-18T17:01:59.347Z,101760.41
2022-12-18T17:04:27.064Z,101757.59
2022-12-18T17:06:53.934Z,101761.34
2022-12-18T17:09:27.716Z,101761.00
2022-12-18T17:11:54.646Z,101757.94
2022-12-18T17:14:24.656Z,101746.50
2022-12-18T17:17:19.170Z,101766.88
2022-12-18T17:19:38.696Z,101769.47
2022-12-18T17:22:05.221Z,101770.47
2022-12-18T17:24:35.063Z,101783.63
2022-12-18T17:27:03.780Z,101774.00
2022-12-18T17:29:30.972Z,101757.56
2022-12-18T17:31:59.272Z,101761.19
2022-12-18T17:34:27.066Z,101765.38
2022-12-18T17:36:53.582Z,101765.25
2022-12-18T17:39:21.263Z,101763.00
2022-12-18T17:41:49.475Z,101761.19
2022-12-18T17:44:17.098Z,101756.97
2022-12-18T17:46:46.025Z,101755.66
2022-12-18T17:49:13.069Z,101763.31
2022-12-18T17:51:39.717Z,101755.75
2022-12-18T17:54:06.463Z,101760.41
2022-12-18T17:56:33.296Z,101750.91
2022-12-18T17:59:00.175Z,101758.72
2022-12-18T18:01:28.027Z,101758.03
2022-12-18T18:03:56.300Z,101747.94
2022-12-18T18:06:23.936Z,101755.03
2022-12-18T18:08:51.075Z,101758.81
2022-12-18T18:11:37.914Z,101747.63
2022-12-18T18:14:14.760Z,101755.09
2022-12-18T18:16:43.960Z,101749.56
2022-12-18T18:19:19.045Z,101745.69
2022-12-18T18:21:47.497Z,101748.72
2022-12-18T18:24:17.805Z,101761.22
2022-12-18T18:26:46.762Z,101741.63
2022-12-18T18:29:17.084Z,101746.50
2022-12-18T18:31:43.951Z,101748.00
2022-12-18T18:34:23.514Z,101752.34
2022-12-18T18:36:50.491Z,101751.59
2022-12-18T18:39:17.550Z,101740.16
2022-12-18T18:41:47.676Z,101740.75
2022-12-18T18:44:15.625Z,101736.34
2022-12-18T18:46:42.149Z,101725.50
2022-12-18T18:49:11.448Z,101731.59
2022-12-18T18:51:37.916Z,101743.78
2022-12-18T18:54:04.506Z,101746.19
2022-12-18T18:56:56.559Z,101740.53
2022-12-18T18:59:18.807Z,101728.91
2022-12-18T19:01:48.875Z,101726.88
2022-12-18T19:04:15.581Z,101727.25
2022-12-18T19:06:42.713Z,101722.97
2022-12-18T19:09:09.623Z,101714.09
2022-12-18T19:11:54.586Z,101710.19
2022-12-18T19:14:24.048Z,101706.81
2022-12-18T19:16:50.711Z,101704.25
2022-12-18T19:19:20.962Z,101696.09
2022-12-18T19:21:48.259Z,101686.91
2022-12-18T19:24:15.050Z,101688.41
2022-12-18T19:26:41.681Z,101697.59
2022-12-18T19:29:10.966Z,101698.63
2022-12-18T19:31:38.404Z,101684.84
2022-12-18T19:34:06.879Z,101681.03
2022-12-18T19:36:36.061Z,101684.03
2022-12-18T19:39:17.971Z,101685.44
2022-12-18T19:41:46.367Z,101687.72
2022-12-18T19:44:14.964Z,101686.13
2022-12-18T19:46:42.849Z,101679.28
2022-12-18T19:49:16.265Z,101675.22
2022-12-18T19:51:44.745Z,101675.44
2022-12-18T19:54:16.723Z,101658.91
2022-12-18T19:56:43.943Z,101667.66
2022-12-18T19:59:10.474Z,101654.16
2022-12-18T20:01:37.292Z,101659.06
2022-12-18T20:04:04.350Z,101675.56
2022-12-18T20:06:34.185Z,101674.53
2022-12-18T20:09:04.163Z,101663.59
2022-12-18T20:11:31.954Z,101672.13
2022-12-18T20:13:58.797Z,101668.84
2022-12-18T20:16:25.503Z,101679.91
2022-12-18T20:18:52.373Z,101677.56
2022-12-18T20:21:19.435Z,101676.81
2022-12-18T20:23:46.245Z,101675.81
2022-12-18T20:26:12.917Z,101670.06
2022-12-18T20:28:39.414Z,101661.56
2022-12-18T20:31:13.560Z,101670.63
2022-12-18T20:33:41.987Z,101664.53
2022-12-18T20:36:14.260Z,101647.78
2022-12-18T20:38:42.454Z,101654.75
2022-12-18T20:41:16.582Z,101653.56
2022-12-18T20:43:43.581Z,101661.03
2022-12-18T20:46:13.542Z,101659.34
2022-12-18T20:48:40.796Z,101654.69
2022-12-18T20:51:17.044Z,101651.09
2022-12-18T20:53:45.359Z,101654.84
2022-12-18T20:56:17.826Z,101648.00
2022-12-18T20:58:49.128Z,101653.19
2022-12-18T21:01:18.777Z,101656.75
2022-12-18T21:03:46.772Z,101648.09
2022-12-18T21:06:16.868Z,101645.59
2022-12-18T21:08:44.199Z,101643.88
2022-12-18T21:11:41.260Z,101644.44
2022-12-18T21:14:19.843Z,101656.47
2022-12-18T21:16:47.921Z,101654.28
2022-12-18T21:19:20.613Z,101664.56
2022-12-18T21:21:47.339Z,101663.97
2022-12-18T21:24:14.175Z,101642.53
2022-12-18T21:26:45.395Z,101647.31
2022-12-18T21:29:19.270Z,101649.09
2022-12-18T21:31:46.202Z,101647.22
2022-12-18T21:34:21.399Z,101656.47
2022-12-18T21:36:48.553Z,101657.47
2022-12-18T21:39:15.835Z,101663.84
2022-12-18T21:42:01.539Z,101674.44
2022-12-18T21:44:28.691Z,101670.25
2022-12-18T21:47:00.617Z,101666.03
2022-12-18T21:49:33.298Z,101663.47
2022-12-18T21:52:00.797Z,101654.69
2022-12-18T21:54:28.701Z,101653.03
2022-12-18T21:56:58.948Z,101661.59
2022-12-18T21:59:34.001Z,101663.75
2022-12-18T22:02:10.604Z,101658.00
2022-12-18T22:04:37.333Z,101654.84
2022-12-18T22:07:05.182Z,101655.47
2022-12-18T22:09:32.449Z,101659.94
2022-12-18T22:11:59.094Z,101653.84
2022-12-18T22:14:25.932Z,101655.28
2022-12-18T22:16:52.938Z,101653.13
2022-12-18T22:19:20.070Z,101654.28
2022-12-18T22:21:48.632Z,101651.16
2022-12-18T22:24:22.669Z,101651.47
2022-12-18T22:26:51.299Z,101649.34
2022-12-18T22:29:41.921Z,101655.81
2022-12-18T22:32:11.551Z,101660.88
2022-12-18T22:34:40.128Z,101661.97
2022-12-18T22:37:06.682Z,101655.72
2022-12-18T22:39:33.221Z,101652.09
2022-12-18T22:42:00.184Z,101653.59
2022-12-18T22:44:26.919Z,101645.34
2022-12-18T22:47:05.550Z,101642.59
2022-12-18T22:49:33.870Z,101643.06
2022-12-18T22:52:01.593Z,101637.13
2022-12-18T22:54:28.105Z,101639.91
2022-12-18T22:56:55.387Z,101632.88
2022-12-18T22:59:23.267Z,101630.59
2022-12-18T23:01:51.491Z,101640.25
2022-12-18T23:04:28.457Z,101623.09
2022-12-18T23:07:02.722Z,101627.72
2022-12-18T23:09:29.179Z,101612.72
2022-12-18T23:11:55.643Z,101615.88
2022-12-18T23:14:22.189Z,101610.50
2022-12-18T23:16:49.924Z,101612.44
2022-12-18T23:19:18.839Z,101616.38
2022-12-18T23:21:45.358Z,101617.50
2022-12-18T23:24:11.863Z,101615.88
2022-12-18T23:26:38.425Z,101614.03
2022-12-18T23:29:05.492Z,101616.06
2022-12-18T23:31:34.380Z,101605.81
2022-12-18T23:34:02.519Z,101597.75
2022-12-18T23:36:29.895Z,101601.16
2022-12-18T23:39:00.947Z,101605.78
2022-12-18T23:41:32.620Z,101608.19
2022-12-18T23:44:00.186Z,101601.75
2022-12-18T23:46:31.716Z,101603.09
2022-12-18T23:49:02.901Z,101603.38
2022-12-18T23:51:32.492Z,101599.59
2022-12-18T23:54:01.356Z,101597.38
2022-12-18T23:56:29.849Z,101586.81
2022-12-18T23:58:56.722Z,101582.88
